createdAt,value
2018-05-29T00:00:10.019Z,977.77
2018-05-29T00:01:05.027Z,977.61
2018-05-29T00:02:06.261Z,977.69
2018-05-29T00:03:05.636Z,977.83
2018-05-29T00:04:05.177Z,977.74
2018-05-29T00:05:05.915Z,977.74
2018-05-29T00:06:05.012Z,977.66
2018-05-29T00:07:05.086Z,977.74
2018-05-29T00:08:05.306Z,977.71
2018-05-29T00:09:05.447Z,977.61
2018-05-29T00:10:06.608Z,977.65
2018-05-29T00:11:06.667Z,977.77
2018-05-29T00:12:05.793Z,977.71
2018-05-29T00:13:05.078Z,977.68
2018-05-29T00:14:05.557Z,977.68
2018-05-29T00:15:05.954Z,977.74
2018-05-29T00:16:05.843Z,977.74
2018-05-29T00:17:05.702Z,977.80
2018-05-29T00:18:05.436Z,977.83
2018-05-29T00:19:05.956Z,977.74
2018-05-29T00:20:05.315Z,977.60
2018-05-29T00:21:06.780Z,977.71
2018-05-29T00:22:05.520Z,977.68
2018-05-29T00:23:05.691Z,977.71
2018-05-29T00:24:05.243Z,977.57
2018-05-29T00:25:05.108Z,977.57
2018-05-29T00:26:05.060Z,977.65
2018-05-29T00:27:10.928Z,977.65
2018-05-29T00:28:05.890Z,977.54
2018-05-29T00:29:05.298Z,977.57
2018-05-29T00:30:05.518Z,977.57
2018-05-29T00:31:05.571Z,977.60
2018-05-29T00:32:05.018Z,977.68
2018-05-29T00:33:06.010Z,977.65
2018-05-29T00:34:10.714Z,977.65
2018-05-29T00:35:05.988Z,977.55
2018-05-29T00:36:05.442Z,977.55
2018-05-29T00:37:05.604Z,977.58
2018-05-29T00:38:05.280Z,977.52
2018-05-29T00:39:05.845Z,977.46
2018-05-29T00:40:04.999Z,977.55
2018-05-29T00:41:05.099Z,977.46
2018-05-29T00:42:05.922Z,977.55
2018-05-29T00:43:05.340Z,977.61
2018-05-29T00:44:05.495Z,977.46
2018-05-29T00:45:05.387Z,977.43
2018-05-29T00:46:05.223Z,977.43
2018-05-29T00:47:05.422Z,977.49
2018-05-29T00:48:05.577Z,977.35
2018-05-29T00:49:05.750Z,977.43
2018-05-29T00:50:05.445Z,977.41
2018-05-29T00:51:06.041Z,977.43
2018-05-29T00:52:05.696Z,977.38
2018-05-29T00:53:04.992Z,977.38
2018-05-29T00:54:05.873Z,977.46
2018-05-29T00:55:05.246Z,977.41
2018-05-29T00:56:05.973Z,977.46
2018-05-29T00:57:05.667Z,977.38
2018-05-29T00:58:05.881Z,977.44
2018-05-29T00:59:05.889Z,977.49
2018-05-29T01:00:05.183Z,977.49
2018-05-29T01:01:10.615Z,977.41
2018-05-29T01:02:05.833Z,977.35
2018-05-29T01:03:05.982Z,977.44
2018-05-29T01:04:05.355Z,977.47
2018-05-29T01:05:06.793Z,977.50
2018-05-29T01:06:05.414Z,977.44
2018-05-29T01:07:06.008Z,977.50
2018-05-29T01:08:10.349Z,977.41
2018-05-29T01:09:05.755Z,977.44
2018-05-29T01:10:05.711Z,977.47
2018-05-29T01:11:05.252Z,977.41
2018-05-29T01:12:05.079Z,977.36
2018-05-29T01:13:05.469Z,977.27
2018-05-29T01:14:05.539Z,977.41
2018-05-29T01:15:05.292Z,977.47
2018-05-29T01:16:05.411Z,977.30
2018-05-29T01:17:05.239Z,977.30
2018-05-29T01:18:05.847Z,977.27
2018-05-29T01:19:05.201Z,977.33
2018-05-29T01:20:05.844Z,977.30
2018-05-29T01:21:05.932Z,977.30
2018-05-29T01:22:05.035Z,977.33
2018-05-29T01:23:05.634Z,977.33
2018-05-29T01:24:05.710Z,977.36
2018-05-29T01:25:05.685Z,977.25
2018-05-29T01:26:05.982Z,977.19
2018-05-29T01:27:05.801Z,977.31
2018-05-29T01:28:05.731Z,977.31
2018-05-29T01:29:05.894Z,977.13
2018-05-29T01:30:05.394Z,977.16
2018-05-29T01:31:05.042Z,977.16
2018-05-29T01:32:05.326Z,977.10
2018-05-29T01:33:05.279Z,977.16
2018-05-29T01:34:05.309Z,977.13
2018-05-29T01:35:05.425Z,977.25
2018-05-29T01:36:05.071Z,977.19
2018-05-29T01:37:05.889Z,977.25
2018-05-29T01:38:05.659Z,977.02
2018-05-29T01:39:05.755Z,977.14
2018-05-29T01:40:05.041Z,977.14
2018-05-29T01:41:06.144Z,977.08
2018-05-29T01:42:05.299Z,977.08
2018-05-29T01:43:05.769Z,977.14
2018-05-29T01:44:05.542Z,977.28
2018-05-29T01:45:06.901Z,977.17
2018-05-29T01:46:04.987Z,977.08
2018-05-29T01:47:05.670Z,977.11
2018-05-29T01:48:05.108Z,977.02
2018-05-29T01:49:06.109Z,977.11
2018-05-29T01:50:04.993Z,977.08
2018-05-29T01:51:05.050Z,976.94
2018-05-29T01:52:05.308Z,977.11
2018-05-29T01:53:05.271Z,977.03
2018-05-29T01:54:05.531Z,977.03
2018-05-29T01:55:04.960Z,976.94
2018-05-29T01:56:05.954Z,976.94
2018-05-29T01:57:06.016Z,976.97
2018-05-29T01:58:05.110Z,976.91
2018-05-29T01:59:05.588Z,976.97
2018-05-29T02:00:05.476Z,977.00
2018-05-29T02:01:05.277Z,976.97
2018-05-29T02:02:10.015Z,977.03
2018-05-29T02:03:05.924Z,976.89
2018-05-29T02:04:05.583Z,977.12
2018-05-29T02:05:04.966Z,976.97
2018-05-29T02:06:06.265Z,977.06
2018-05-29T02:07:05.394Z,976.98
2018-05-29T02:08:06.000Z,977.03
2018-05-29T02:09:06.034Z,976.95
2018-05-29T02:10:05.250Z,976.95
2018-05-29T02:11:05.207Z,977.01
2018-05-29T02:12:05.198Z,977.07
2018-05-29T02:13:05.503Z,976.98
2018-05-29T02:14:10.688Z,977.07
2018-05-29T02:15:10.647Z,976.95
2018-05-29T02:16:05.763Z,976.98
2018-05-29T02:17:05.449Z,976.86
2018-05-29T02:18:06.039Z,977.01
2018-05-29T02:19:10.315Z,977.01
2018-05-29T02:20:05.229Z,977.01
2018-05-29T02:21:05.511Z,976.95
2018-05-29T02:22:05.590Z,976.95
2018-05-29T02:23:05.702Z,976.98
2018-05-29T02:24:10.766Z,976.95
2018-05-29T02:25:06.165Z,976.92
2018-05-29T02:26:05.471Z,976.98
2018-05-29T02:27:05.951Z,976.92
2018-05-29T02:28:06.151Z,976.93
2018-05-29T02:29:05.220Z,976.90
2018-05-29T02:30:05.303Z,976.99
2018-05-29T02:31:05.563Z,976.81
2018-05-29T02:32:05.385Z,976.75
2018-05-29T02:33:05.933Z,976.90
2018-05-29T02:34:05.973Z,976.96
2018-05-29T02:35:05.693Z,976.93
2018-05-29T02:36:07.000Z,976.82
2018-05-29T02:37:05.534Z,976.96
2018-05-29T02:38:05.458Z,976.96
2018-05-29T02:39:06.125Z,977.02
2018-05-29T02:40:05.065Z,976.97
2018-05-29T02:41:05.717Z,976.88
2018-05-29T02:42:05.732Z,976.88
2018-05-29T02:43:05.916Z,976.97
2018-05-29T02:44:05.370Z,977.03
2018-05-29T02:45:06.042Z,977.03
2018-05-29T02:46:05.266Z,977.06
2018-05-29T02:47:05.496Z,977.06
2018-05-29T02:48:05.135Z,977.09
2018-05-29T02:49:05.947Z,977.12
2018-05-29T02:50:05.160Z,977.15
2018-05-29T02:51:05.098Z,977.09
2018-05-29T02:52:05.897Z,977.03
2018-05-29T02:53:05.110Z,977.06
2018-05-29T02:54:05.528Z,977.15
2018-05-29T02:55:05.852Z,977.06
2018-05-29T02:56:05.968Z,977.01
2018-05-29T02:57:05.196Z,977.07
2018-05-29T02:58:10.667Z,977.18
2018-05-29T02:59:05.431Z,977.21
2018-05-29T03:00:05.507Z,977.27
2018-05-29T03:01:05.795Z,977.13
2018-05-29T03:02:05.919Z,977.10
2018-05-29T03:03:05.970Z,977.24
2018-05-29T03:04:05.281Z,977.30
2018-05-29T03:05:05.661Z,977.13
2018-05-29T03:06:05.624Z,977.16
2018-05-29T03:07:05.891Z,977.16
2018-05-29T03:08:05.506Z,977.05
2018-05-29T03:09:05.505Z,977.31
2018-05-29T03:10:05.318Z,977.13
2018-05-29T03:11:05.036Z,977.13
2018-05-29T03:12:05.345Z,977.13
2018-05-29T03:13:05.604Z,977.13
2018-05-29T03:14:06.034Z,977.28
2018-05-29T03:15:05.483Z,977.28
2018-05-29T03:16:05.394Z,977.34
2018-05-29T03:17:05.749Z,977.20
2018-05-29T03:18:05.464Z,977.25
2018-05-29T03:19:05.661Z,977.31
2018-05-29T03:20:05.306Z,977.40
2018-05-29T03:21:05.779Z,977.25
2018-05-29T03:22:05.896Z,977.23
2018-05-29T03:23:10.446Z,977.25
2018-05-29T03:24:05.243Z,977.34
2018-05-29T03:25:05.308Z,977.25
2018-05-29T03:26:05.358Z,977.28
2018-05-29T03:27:05.446Z,977.25
2018-05-29T03:28:05.527Z,977.23
2018-05-29T03:29:05.911Z,977.31
2018-05-29T03:30:05.216Z,977.31
2018-05-29T03:31:05.296Z,977.17
2018-05-29T03:32:06.329Z,977.26
2018-05-29T03:33:06.528Z,977.32
2018-05-29T03:34:05.201Z,977.29
2018-05-29T03:35:05.777Z,977.29
2018-05-29T03:36:06.666Z,977.29
2018-05-29T03:37:05.808Z,977.29
2018-05-29T03:38:06.056Z,977.29
2018-05-29T03:39:05.142Z,977.29
2018-05-29T03:40:06.369Z,977.29
2018-05-29T03:41:05.019Z,977.24
2018-05-29T03:42:05.240Z,977.29
2018-05-29T03:43:05.371Z,977.18
2018-05-29T03:44:05.647Z,977.21
2018-05-29T03:45:05.466Z,977.27
2018-05-29T03:46:05.739Z,977.32
2018-05-29T03:47:05.841Z,977.15
2018-05-29T03:48:05.977Z,977.21
2018-05-29T03:49:05.493Z,977.32
2018-05-29T03:50:05.164Z,977.32
2018-05-29T03:51:05.671Z,977.21
2018-05-29T03:52:06.023Z,977.35
2018-05-29T03:53:05.616Z,977.26
2018-05-29T03:54:05.461Z,977.26
2018-05-29T03:55:05.774Z,977.26
2018-05-29T03:56:05.091Z,977.25
2018-05-29T03:57:05.697Z,977.37
2018-05-29T03:58:05.932Z,977.25
2018-05-29T03:59:06.170Z,977.21
2018-05-29T04:00:05.717Z,977.21
2018-05-29T04:01:07.104Z,977.38
2018-05-29T04:02:05.148Z,977.38
2018-05-29T04:03:05.572Z,977.34
2018-05-29T04:04:05.110Z,977.37
2018-05-29T04:05:05.587Z,977.33
2018-05-29T04:06:06.080Z,977.30
2018-05-29T04:07:05.024Z,977.27
2018-05-29T04:08:05.882Z,977.26
2018-05-29T04:09:05.642Z,977.23
2018-05-29T04:10:05.780Z,977.17
2018-05-29T04:11:06.319Z,977.16
2018-05-29T04:12:05.660Z,977.10
2018-05-29T04:13:05.103Z,977.30
2018-05-29T04:14:05.181Z,977.18
2018-05-29T04:15:05.824Z,977.17
2018-05-29T04:16:06.826Z,977.17
2018-05-29T04:17:05.596Z,977.17
2018-05-29T04:18:05.128Z,977.19
2018-05-29T04:19:05.437Z,977.24
2018-05-29T04:20:05.421Z,977.21
2018-05-29T04:21:05.435Z,977.26
2018-05-29T04:22:05.800Z,977.32
2018-05-29T04:23:05.694Z,977.17
2018-05-29T04:24:06.730Z,977.22
2018-05-29T04:25:05.838Z,977.21
2018-05-29T04:26:10.559Z,977.30
2018-05-29T04:27:05.337Z,977.18
2018-05-29T04:28:05.767Z,977.23
2018-05-29T04:29:05.145Z,977.17
2018-05-29T04:30:04.963Z,977.25
2018-05-29T04:31:05.847Z,977.19
2018-05-29T04:32:05.855Z,977.16
2018-05-29T04:33:05.850Z,977.09
2018-05-29T04:34:05.962Z,977.09
2018-05-29T04:35:05.271Z,977.12
2018-05-29T04:36:05.075Z,977.18
2018-05-29T04:37:06.020Z,977.09
2018-05-29T04:38:05.389Z,977.05
2018-05-29T04:39:06.996Z,977.23
2018-05-29T04:40:05.771Z,977.14
2018-05-29T04:41:05.727Z,977.17
2018-05-29T04:42:06.911Z,977.16
2018-05-29T04:43:05.863Z,977.13
2018-05-29T04:44:05.788Z,977.13
2018-05-29T04:45:05.471Z,977.13
2018-05-29T04:46:05.587Z,977.10
2018-05-29T04:47:05.365Z,977.30
2018-05-29T04:48:05.389Z,977.10
2018-05-29T04:49:10.291Z,977.12
2018-05-29T04:50:05.256Z,977.12
2018-05-29T04:51:05.842Z,977.03
2018-05-29T04:52:05.033Z,977.03
2018-05-29T04:53:05.355Z,977.09
2018-05-29T04:54:05.256Z,977.09
2018-05-29T04:55:05.851Z,977.00
2018-05-29T04:56:05.080Z,977.15
2018-05-29T04:57:06.365Z,977.09
2018-05-29T04:58:05.023Z,976.94
2018-05-29T04:59:05.415Z,977.11
2018-05-29T05:00:05.532Z,977.14
2018-05-29T05:01:06.079Z,977.08
2018-05-29T05:02:05.130Z,977.08
2018-05-29T05:03:06.877Z,977.07
2018-05-29T05:04:05.297Z,977.04
2018-05-29T05:05:05.335Z,976.98
2018-05-29T05:06:05.626Z,977.01
2018-05-29T05:07:05.522Z,977.09
2018-05-29T05:08:05.649Z,976.95
2018-05-29T05:09:05.139Z,976.91
2018-05-29T05:10:05.975Z,977.06
2018-05-29T05:11:06.545Z,976.94
2018-05-29T05:12:05.929Z,977.02
2018-05-29T05:13:05.642Z,976.88
2018-05-29T05:14:06.021Z,976.87
2018-05-29T05:15:05.495Z,976.93
2018-05-29T05:16:05.319Z,976.93
2018-05-29T05:17:05.779Z,976.87
2018-05-29T05:18:05.788Z,976.87
2018-05-29T05:19:07.155Z,977.01
2018-05-29T05:20:05.303Z,976.92
2018-05-29T05:21:05.494Z,976.95
2018-05-29T05:22:04.948Z,976.97
2018-05-29T05:23:05.092Z,977.03
2018-05-29T05:24:05.308Z,976.88
2018-05-29T05:25:05.264Z,976.94
2018-05-29T05:26:05.542Z,976.87
2018-05-29T05:27:05.086Z,976.99
2018-05-29T05:28:05.800Z,976.96
2018-05-29T05:29:15.668Z,976.89
2018-05-29T05:30:06.222Z,976.86
2018-05-29T05:31:05.302Z,976.89
2018-05-29T05:32:05.074Z,976.95
2018-05-29T05:33:05.098Z,976.86
2018-05-29T05:34:05.193Z,976.86
2018-05-29T05:35:05.740Z,976.86
2018-05-29T05:36:05.708Z,976.86
2018-05-29T05:37:04.924Z,976.77
2018-05-29T05:38:05.151Z,976.88
2018-05-29T05:39:05.090Z,976.91
2018-05-29T05:40:05.353Z,976.97
2018-05-29T05:41:05.148Z,976.88
2018-05-29T05:42:05.424Z,976.93
2018-05-29T05:43:05.577Z,976.93
2018-05-29T05:44:05.331Z,976.93
2018-05-29T05:45:05.544Z,976.89
2018-05-29T05:46:05.548Z,976.81
2018-05-29T05:47:05.435Z,976.92
2018-05-29T05:48:05.837Z,976.83
2018-05-29T05:49:05.860Z,976.83
2018-05-29T05:50:10.961Z,976.94
2018-05-29T05:51:06.217Z,976.76
2018-05-29T05:52:05.477Z,976.88
2018-05-29T05:53:05.303Z,976.90
2018-05-29T05:54:05.505Z,976.93
2018-05-29T05:55:05.486Z,976.81
2018-05-29T05:56:05.878Z,976.98
2018-05-29T05:57:05.170Z,976.83
2018-05-29T05:58:05.444Z,976.98
2018-05-29T05:59:05.482Z,976.86
2018-05-29T06:00:05.253Z,976.82
2018-05-29T06:01:05.536Z,976.88
2018-05-29T06:02:05.515Z,976.82
2018-05-29T06:03:05.659Z,976.88
2018-05-29T06:04:05.599Z,976.78
2018-05-29T06:05:05.276Z,976.75
2018-05-29T06:06:05.750Z,976.81
2018-05-29T06:07:05.314Z,976.74
2018-05-29T06:08:05.717Z,976.83
2018-05-29T06:09:05.573Z,976.82
2018-05-29T06:10:05.265Z,976.76
2018-05-29T06:11:05.335Z,976.76
2018-05-29T06:12:05.312Z,976.75
2018-05-29T06:13:08.205Z,976.89
2018-05-29T06:14:05.664Z,976.72
2018-05-29T06:15:05.709Z,976.74
2018-05-29T06:16:05.783Z,976.82
2018-05-29T06:17:05.942Z,976.85
2018-05-29T06:18:05.472Z,976.84
2018-05-29T06:19:05.393Z,976.87
2018-05-29T06:20:05.397Z,976.84
2018-05-29T06:21:05.113Z,976.80
2018-05-29T06:22:05.875Z,976.77
2018-05-29T06:23:05.672Z,976.86
2018-05-29T06:24:15.673Z,976.92
2018-05-29T06:25:05.548Z,976.80
2018-05-29T06:26:05.410Z,976.77
2018-05-29T06:27:05.110Z,976.74
2018-05-29T06:28:06.558Z,976.79
2018-05-29T06:29:05.881Z,976.85
2018-05-29T06:30:06.363Z,976.78
2018-05-29T06:31:05.554Z,976.87
2018-05-29T06:32:05.307Z,976.84
2018-05-29T06:33:05.937Z,976.89
2018-05-29T06:34:05.204Z,976.72
2018-05-29T06:35:05.979Z,976.77
2018-05-29T06:36:05.986Z,976.76
2018-05-29T06:37:05.295Z,976.85
2018-05-29T06:38:05.134Z,976.91
2018-05-29T06:39:10.230Z,976.82
2018-05-29T06:40:06.529Z,976.79
2018-05-29T06:41:05.488Z,976.82
2018-05-29T06:42:05.568Z,976.79
2018-05-29T06:43:05.949Z,976.76
2018-05-29T06:44:05.917Z,976.91
2018-05-29T06:45:06.330Z,976.88
2018-05-29T06:46:05.373Z,976.99
2018-05-29T06:47:05.772Z,976.99
2018-05-29T06:48:05.408Z,976.96
2018-05-29T06:49:05.201Z,976.90
2018-05-29T06:50:05.312Z,976.81
2018-05-29T06:51:05.617Z,976.84
2018-05-29T06:52:05.251Z,976.84
2018-05-29T06:53:05.201Z,976.93
2018-05-29T06:54:06.245Z,976.81
2018-05-29T06:55:05.238Z,976.90
2018-05-29T06:56:05.090Z,976.90
2018-05-29T06:57:05.293Z,976.92
2018-05-29T06:58:05.961Z,976.92
2018-05-29T06:59:05.916Z,976.89
2018-05-29T07:00:05.936Z,976.83
2018-05-29T07:01:05.970Z,976.92
2018-05-29T07:02:05.128Z,976.86
2018-05-29T07:03:05.013Z,976.69
2018-05-29T07:04:05.079Z,976.77
2018-05-29T07:05:05.881Z,976.80
2018-05-29T07:06:05.853Z,976.77
2018-05-29T07:07:05.342Z,976.80
2018-05-29T07:08:05.215Z,976.77
2018-05-29T07:09:05.067Z,976.86
2018-05-29T07:10:06.028Z,976.89
2018-05-29T07:11:05.069Z,976.89
2018-05-29T07:12:05.221Z,976.86
2018-05-29T07:13:05.619Z,976.77
2018-05-29T07:14:05.645Z,976.77
2018-05-29T07:15:10.165Z,976.85
2018-05-29T07:16:05.363Z,976.62
2018-05-29T07:17:05.693Z,976.68
2018-05-29T07:18:05.160Z,976.68
2018-05-29T07:19:04.978Z,976.71
2018-05-29T07:20:05.816Z,976.71
2018-05-29T07:21:05.151Z,976.62
2018-05-29T07:22:05.200Z,976.73
2018-05-29T07:23:05.005Z,976.56
2018-05-29T07:24:05.446Z,976.64
2018-05-29T07:25:05.228Z,976.64
2018-05-29T07:26:05.595Z,976.70
2018-05-29T07:27:05.477Z,976.73
2018-05-29T07:28:05.560Z,976.55
2018-05-29T07:29:10.687Z,976.55
2018-05-29T07:30:05.107Z,976.52
2018-05-29T07:31:05.289Z,976.64
2018-05-29T07:32:05.096Z,976.49
2018-05-29T07:33:06.278Z,976.64
2018-05-29T07:34:05.387Z,976.53
2018-05-29T07:35:05.652Z,976.53
2018-05-29T07:36:05.753Z,976.56
2018-05-29T07:37:05.744Z,976.51
2018-05-29T07:38:05.628Z,976.60
2018-05-29T07:39:05.863Z,976.57
2018-05-29T07:40:05.411Z,976.63
2018-05-29T07:41:06.156Z,976.54
2018-05-29T07:42:05.227Z,976.51
2018-05-29T07:43:05.205Z,976.48
2018-05-29T07:44:05.746Z,976.48
2018-05-29T07:45:05.533Z,976.54
2018-05-29T07:46:05.852Z,976.48
2018-05-29T07:47:04.938Z,976.51
2018-05-29T07:48:06.373Z,976.56
2018-05-29T07:49:05.867Z,976.42
2018-05-29T07:50:05.487Z,976.38
2018-05-29T07:51:05.271Z,976.44
2018-05-29T07:52:05.437Z,976.56
2018-05-29T07:53:05.857Z,976.38
2018-05-29T07:54:05.921Z,976.38
2018-05-29T07:55:05.526Z,976.47
2018-05-29T07:56:05.942Z,976.41
2018-05-29T07:57:05.698Z,976.50
2018-05-29T07:58:05.623Z,976.42
2018-05-29T07:59:05.392Z,976.36
2018-05-29T08:00:05.354Z,976.45
2018-05-29T08:01:05.569Z,976.48
2018-05-29T08:02:05.694Z,976.36
2018-05-29T08:03:05.473Z,976.51
2018-05-29T08:04:05.561Z,976.48
2018-05-29T08:05:05.886Z,976.48
2018-05-29T08:06:05.933Z,976.39
2018-05-29T08:07:05.969Z,976.36
2018-05-29T08:08:05.059Z,976.42
2018-05-29T08:09:05.690Z,976.45
2018-05-29T08:10:06.488Z,976.45
2018-05-29T08:11:05.406Z,976.45
2018-05-29T08:12:06.476Z,976.48
2018-05-29T08:13:05.315Z,976.54
2018-05-29T08:14:05.413Z,976.45
2018-05-29T08:15:05.644Z,976.54
2018-05-29T08:16:05.138Z,976.48
2018-05-29T08:17:05.288Z,976.54
2018-05-29T08:18:05.046Z,976.48
2018-05-29T08:19:05.111Z,976.60
2018-05-29T08:20:05.362Z,976.57
2018-05-29T08:21:05.480Z,976.37
2018-05-29T08:22:05.977Z,976.61
2018-05-29T08:23:10.770Z,976.55
2018-05-29T08:24:05.906Z,976.52
2018-05-29T08:25:05.394Z,976.52
2018-05-29T08:26:05.338Z,976.46
2018-05-29T08:27:05.001Z,976.37
2018-05-29T08:28:05.458Z,976.55
2018-05-29T08:29:05.788Z,976.40
2018-05-29T08:30:05.688Z,976.49
2018-05-29T08:31:05.822Z,976.52
2018-05-29T08:32:05.829Z,976.52
2018-05-29T08:33:10.640Z,976.46
2018-05-29T08:34:05.978Z,976.46
2018-05-29T08:35:05.896Z,976.43
2018-05-29T08:36:05.404Z,976.58
2018-05-29T08:37:05.545Z,976.49
2018-05-29T08:38:05.721Z,976.34
2018-05-29T08:39:05.341Z,976.38
2018-05-29T08:40:05.388Z,976.44
2018-05-29T08:41:05.545Z,976.53
2018-05-29T08:42:05.778Z,976.35
2018-05-29T08:43:05.865Z,976.41
2018-05-29T08:44:05.462Z,976.59
2018-05-29T08:45:05.901Z,976.44
2018-05-29T08:46:06.298Z,976.29
2018-05-29T08:47:05.176Z,976.41
2018-05-29T08:48:05.922Z,976.35
2018-05-29T08:49:05.743Z,976.32
2018-05-29T08:50:05.693Z,976.32
2018-05-29T08:51:05.869Z,976.40
2018-05-29T08:52:05.037Z,976.37
2018-05-29T08:53:05.115Z,976.28
2018-05-29T08:54:05.998Z,976.34
2018-05-29T08:55:05.445Z,976.43
2018-05-29T08:56:05.681Z,976.43
2018-05-29T08:57:05.275Z,976.43
2018-05-29T08:58:05.697Z,976.37
2018-05-29T08:59:05.608Z,976.49
2018-05-29T09:00:05.518Z,976.43
2018-05-29T09:01:05.240Z,976.43
2018-05-29T09:02:05.135Z,976.40
2018-05-29T09:03:05.724Z,976.22
2018-05-29T09:04:05.203Z,976.31
2018-05-29T09:05:05.886Z,976.29
2018-05-29T09:06:10.530Z,976.37
2018-05-29T09:07:05.500Z,976.34
2018-05-29T09:08:05.262Z,976.37
2018-05-29T09:09:05.648Z,976.49
2018-05-29T09:10:05.315Z,976.32
2018-05-29T09:11:05.255Z,976.29
2018-05-29T09:12:05.860Z,976.32
2018-05-29T09:13:05.311Z,976.32
2018-05-29T09:14:05.688Z,976.29
2018-05-29T09:15:05.509Z,976.44
2018-05-29T09:16:05.355Z,976.26
2018-05-29T09:17:05.515Z,976.40
2018-05-29T09:18:05.876Z,976.40
2018-05-29T09:19:05.198Z,976.37
2018-05-29T09:20:05.779Z,976.37
2018-05-29T09:21:05.232Z,976.34
2018-05-29T09:22:05.398Z,976.37
2018-05-29T09:23:05.456Z,976.37
2018-05-29T09:24:05.228Z,976.37
2018-05-29T09:25:05.528Z,976.37
2018-05-29T09:26:06.109Z,976.34
2018-05-29T09:27:05.369Z,976.34
2018-05-29T09:28:05.158Z,976.31
2018-05-29T09:29:05.697Z,976.37
2018-05-29T09:30:05.377Z,976.34
2018-05-29T09:31:05.969Z,976.31
2018-05-29T09:32:05.265Z,976.31
2018-05-29T09:33:05.473Z,976.31
2018-05-29T09:34:10.199Z,976.25
2018-05-29T09:35:05.766Z,976.30
2018-05-29T09:36:05.729Z,976.30
2018-05-29T09:37:05.800Z,976.39
2018-05-29T09:38:05.790Z,976.27
2018-05-29T09:39:05.961Z,976.24
2018-05-29T09:40:05.926Z,976.18
2018-05-29T09:41:06.017Z,976.24
2018-05-29T09:42:05.266Z,976.21
2018-05-29T09:43:05.722Z,976.12
2018-05-29T09:44:05.835Z,976.23
2018-05-29T09:45:05.217Z,976.20
2018-05-29T09:46:05.125Z,976.17
2018-05-29T09:47:05.435Z,976.20
2018-05-29T09:48:05.898Z,976.17
2018-05-29T09:49:10.018Z,976.26
2018-05-29T09:50:05.862Z,976.14
2018-05-29T09:51:05.924Z,976.08
2018-05-29T09:52:05.250Z,976.23
2018-05-29T09:53:05.416Z,976.11
2018-05-29T09:54:05.858Z,976.08
2018-05-29T09:55:05.484Z,976.14
2018-05-29T09:56:05.871Z,976.29
2018-05-29T09:57:05.409Z,976.05
2018-05-29T09:58:05.266Z,976.02
2018-05-29T09:59:05.944Z,976.05
2018-05-29T10:00:05.844Z,976.14
2018-05-29T10:01:05.730Z,976.02
2018-05-29T10:02:06.252Z,976.07
2018-05-29T10:03:05.455Z,976.04
2018-05-29T10:04:05.175Z,975.95
2018-05-29T10:05:05.383Z,976.04
2018-05-29T10:06:05.820Z,976.10
2018-05-29T10:07:05.695Z,976.13
2018-05-29T10:08:05.316Z,975.98
2018-05-29T10:09:05.704Z,975.98
2018-05-29T10:10:05.453Z,975.98
2018-05-29T10:11:05.591Z,975.95
2018-05-29T10:12:05.400Z,976.00
2018-05-29T10:13:05.721Z,975.94
2018-05-29T10:14:05.809Z,975.91
2018-05-29T10:15:05.532Z,975.85
2018-05-29T10:16:05.679Z,975.88
2018-05-29T10:17:05.235Z,975.85
2018-05-29T10:18:05.181Z,975.91
2018-05-29T10:19:05.246Z,975.85
2018-05-29T10:20:05.680Z,975.82
2018-05-29T10:21:05.373Z,975.85
2018-05-29T10:22:05.804Z,975.82
2018-05-29T10:23:05.888Z,975.82
2018-05-29T10:24:05.864Z,975.76
2018-05-29T10:25:05.784Z,975.76
2018-05-29T10:26:06.234Z,975.72
2018-05-29T10:27:05.945Z,975.72
2018-05-29T10:28:05.581Z,975.72
2018-05-29T10:29:05.987Z,975.63
2018-05-29T10:30:10.283Z,975.75
2018-05-29T10:31:05.738Z,975.78
2018-05-29T10:32:05.097Z,975.81
2018-05-29T10:33:05.821Z,975.70
2018-05-29T10:34:05.975Z,975.70
2018-05-29T10:35:05.418Z,975.73
2018-05-29T10:36:10.940Z,975.67
2018-05-29T10:37:05.404Z,975.73
2018-05-29T10:38:06.017Z,975.91
2018-05-29T10:39:05.549Z,975.76
2018-05-29T10:40:05.398Z,975.61
2018-05-29T10:41:05.334Z,975.79
2018-05-29T10:42:11.060Z,975.70
2018-05-29T10:43:06.075Z,975.72
2018-05-29T10:44:06.087Z,975.61
2018-05-29T10:45:05.923Z,975.69
2018-05-29T10:46:05.523Z,975.67
2018-05-29T10:47:05.312Z,975.73
2018-05-29T10:48:05.470Z,975.70
2018-05-29T10:49:05.814Z,975.82
2018-05-29T10:50:05.933Z,975.64
2018-05-29T10:51:05.832Z,975.82
2018-05-29T10:52:05.212Z,975.64
2018-05-29T10:53:05.779Z,975.67
2018-05-29T10:54:05.025Z,975.61
2018-05-29T10:55:05.159Z,975.67
2018-05-29T10:56:05.571Z,975.73
2018-05-29T10:57:05.391Z,975.68
2018-05-29T10:58:05.883Z,975.65
2018-05-29T10:59:05.038Z,975.59
2018-05-29T11:00:05.554Z,975.59
2018-05-29T11:01:05.778Z,975.64
2018-05-29T11:02:05.268Z,975.70
2018-05-29T11:03:05.842Z,975.61
2018-05-29T11:04:05.013Z,975.55
2018-05-29T11:05:05.499Z,975.55
2018-05-29T11:06:05.302Z,975.60
2018-05-29T11:07:05.411Z,975.51
2018-05-29T11:08:05.092Z,975.63
2018-05-29T11:09:05.502Z,975.56
2018-05-29T11:10:05.161Z,975.68
2018-05-29T11:11:10.608Z,975.53
2018-05-29T11:12:05.421Z,975.56
2018-05-29T11:13:05.148Z,975.47
2018-05-29T11:14:06.474Z,975.50
2018-05-29T11:15:05.786Z,975.44
2018-05-29T11:16:05.379Z,975.41
2018-05-29T11:17:10.370Z,975.42
2018-05-29T11:18:05.503Z,975.39
2018-05-29T11:19:05.207Z,975.45
2018-05-29T11:20:10.676Z,975.45
2018-05-29T11:21:05.478Z,975.39
2018-05-29T11:22:05.353Z,975.43
2018-05-29T11:23:05.339Z,975.43
2018-05-29T11:24:05.562Z,975.46
2018-05-29T11:25:05.062Z,975.29
2018-05-29T11:26:05.565Z,975.40
2018-05-29T11:27:05.160Z,975.54
2018-05-29T11:28:05.944Z,975.29
2018-05-29T11:29:05.892Z,975.54
2018-05-29T11:30:05.033Z,975.33
2018-05-29T11:31:05.231Z,975.28
2018-05-29T11:32:06.155Z,975.39
2018-05-29T11:33:05.576Z,975.28
2018-05-29T11:34:05.247Z,975.33
2018-05-29T11:35:05.195Z,975.23
2018-05-29T11:36:05.995Z,975.37
2018-05-29T11:37:05.964Z,975.37
2018-05-29T11:38:05.261Z,975.32
2018-05-29T11:39:05.904Z,975.20
2018-05-29T11:40:06.411Z,975.29
2018-05-29T11:41:05.183Z,975.23
2018-05-29T11:42:05.115Z,975.23
2018-05-29T11:43:05.220Z,975.26
2018-05-29T11:44:05.679Z,975.14
2018-05-29T11:45:05.047Z,975.14
2018-05-29T11:46:06.311Z,975.17
2018-05-29T11:47:05.712Z,975.19
2018-05-29T11:48:05.723Z,975.17
2018-05-29T11:49:05.511Z,975.05
2018-05-29T11:50:05.597Z,975.02
2018-05-29T11:51:05.659Z,974.99
2018-05-29T11:52:06.029Z,975.03
2018-05-29T11:53:05.352Z,975.12
2018-05-29T11:54:05.731Z,974.97
2018-05-29T11:55:05.375Z,975.18
2018-05-29T11:56:05.460Z,975.03
2018-05-29T11:57:05.865Z,974.95
2018-05-29T11:58:05.310Z,974.95
2018-05-29T11:59:05.229Z,974.77
2018-05-29T12:00:05.094Z,974.95
2018-05-29T12:01:05.413Z,974.86
2018-05-29T12:02:05.508Z,974.89
2018-05-29T12:03:05.775Z,974.95
2018-05-29T12:04:05.327Z,974.96
2018-05-29T12:05:05.217Z,974.96
2018-05-29T12:06:05.373Z,974.88
2018-05-29T12:07:05.916Z,974.85
2018-05-29T12:08:05.324Z,974.88
2018-05-29T12:09:05.149Z,974.99
2018-05-29T12:10:05.670Z,974.98
2018-05-29T12:11:05.884Z,974.95
2018-05-29T12:12:05.141Z,974.95
2018-05-29T12:13:05.560Z,974.90
2018-05-29T12:14:05.645Z,975.10
2018-05-29T12:15:05.215Z,974.95
2018-05-29T12:16:06.040Z,975.01
2018-05-29T12:17:05.278Z,974.95
2018-05-29T12:18:05.257Z,974.93
2018-05-29T12:19:06.117Z,974.93
2018-05-29T12:20:05.496Z,974.90
2018-05-29T12:21:05.364Z,974.98
2018-05-29T12:22:05.664Z,974.92
2018-05-29T12:23:05.934Z,974.95
2018-05-29T12:24:05.902Z,975.12
2018-05-29T12:25:06.029Z,975.12
2018-05-29T12:26:05.167Z,975.14
2018-05-29T12:27:04.993Z,975.11
2018-05-29T12:28:05.085Z,975.05